Time;durP1;ratioP1;P1;durP2;ratioP2;P2;SDS_P1;SDS_P2;PMS_P1;PMS_P2;Temp;Humidity;BMP_temperature;BMP_pressure;BME280_temperature;BME280_humidity;BME280_pressure;Samples;Min_cycle;Max_cycle;Signal;HPM_P1;HPM_P2
2021/04/19 00:00:40;;;;;;;34.10;26.47;;;10.00;56.20;;;;;;5026474;28;20037;-85
2021/04/19 00:03:06;;;;;;;33.30;25.87;;;10.00;56.30;;;;;;5014851;28;20033;-85
2021/04/19 00:05:32;;;;;;;31.43;25.37;;;10.00;56.20;;;;;;5025410;28;20038;-85
2021/04/19 00:07:58;;;;;;;33.23;25.60;;;10.10;56.20;;;;;;5026815;28;20025;-85
2021/04/19 00:10:24;;;;;;;32.03;24.50;;;10.10;56.10;;;;;;5032699;28;20393;-85
2021/04/19 00:12:50;;;;;;;32.40;25.63;;;10.10;56.10;;;;;;5030797;28;20025;-85
2021/04/19 00:15:19;;;;;;;32.87;25.20;;;10.10;56.00;;;;;;5023108;28;20030;-85
2021/04/19 00:17:45;;;;;;;32.83;25.37;;;10.10;56.00;;;;;;5026494;28;20029;-86
2021/04/19 00:20:12;;;;;;;31.07;24.80;;;10.10;56.00;;;;;;5032257;28;20484;-85
2021/04/19 00:22:39;;;;;;;31.17;24.57;;;10.10;56.00;;;;;;5031783;28;20030;-85
2021/04/19 00:25:06;;;;;;;30.27;24.13;;;10.10;55.90;;;;;;5033023;28;20075;-85
2021/04/19 00:27:32;;;;;;;32.07;25.23;;;10.10;56.00;;;;;;5021130;28;20034;-85
2021/04/19 00:29:58;;;;;;;33.67;25.13;;;10.00;56.00;;;;;;5026099;28;20076;-85
2021/04/19 00:32:24;;;;;;;33.10;25.90;;;10.10;56.20;;;;;;5029945;28;20040;-84
2021/04/19 00:34:50;;;;;;;31.67;25.33;;;10.10;56.20;;;;;;5033309;28;20091;-85
2021/04/19 00:37:16;;;;;;;35.97;25.63;;;10.00;56.30;;;;;;5031066;28;20485;-85
2021/04/19 00:39:42;;;;;;;33.07;25.60;;;10.00;56.60;;;;;;5031901;28;20040;-85
2021/04/19 00:42:08;;;;;;;32.63;24.63;;;9.90;56.90;;;;;;5029349;28;20033;-85
2021/04/19 00:44:34;;;;;;;32.33;25.80;;;9.90;57.00;;;;;;5046620;28;20584;-84
2021/04/19 00:47:01;;;;;;;30.07;24.70;;;9.90;57.20;;;;;;5026145;28;20017;-85
2021/04/19 00:49:27;;;;;;;33.13;25.40;;;9.90;57.20;;;;;;5022162;28;20034;-85
2021/04/19 00:51:54;;;;;;;30.63;24.53;;;9.90;57.10;;;;;;5029421;28;20072;-85
2021/04/19 00:54:21;;;;;;;36.03;27.73;;;9.90;57.10;;;;;;5006873;28;706173;-85
2021/04/19 00:56:49;;;;;;;34.87;26.03;;;9.90;57.10;;;;;;5026632;28;20495;-85
2021/04/19 00:59:15;;;;;;;32.67;25.73;;;10.00;57.10;;;;;;5032309;28;20108;-85
2021/04/19 01:01:41;;;;;;;30.03;24.20;;;10.00;57.00;;;;;;5031150;28;20553;-85
2021/04/19 01:04:07;;;;;;;32.87;25.17;;;10.00;57.00;;;;;;5031821;28;20049;-85
2021/04/19 01:06:33;;;;;;;30.20;23.93;;;10.00;57.00;;;;;;5029709;28;20068;-85
2021/04/19 01:08:59;;;;;;;32.97;26.03;;;10.00;57.00;;;;;;5028045;28;20036;-85
2021/04/19 01:11:24;;;;;;;32.27;24.73;;;10.00;57.10;;;;;;5016807;28;20103;-85
2021/04/19 01:13:50;;;;;;;30.10;25.03;;;10.00;57.30;;;;;;5031919;28;20026;-85
2021/04/19 01:16:16;;;;;;;30.40;24.43;;;9.90;57.40;;;;;;5031307;28;20033;-85
2021/04/19 01:18:42;;;;;;;39.07;28.47;;;9.90;57.50;;;;;;5031797;28;20048;-85
2021/04/19 01:21:08;;;;;;;34.50;26.80;;;9.90;57.60;;;;;;5027474;28;20389;-85
2021/04/19 01:23:36;;;;;;;35.03;24.73;;;9.90;57.70;;;;;;5031485;28;20482;-85
2021/04/19 01:26:03;;;;;;;29.53;24.17;;;9.90;57.90;;;;;;5031337;28;20061;-85
2021/04/19 01:28:29;;;;;;;39.13;29.97;;;9.90;58.00;;;;;;5027376;28;20056;-85
2021/04/19 01:30:55;;;;;;;52.30;34.20;;;9.90;58.30;;;;;;5025675;28;20393;-85
2021/04/19 01:33:21;;;;;;;52.03;34.83;;;9.90;58.40;;;;;;5029889;28;20029;-85
2021/04/19 01:35:48;;;;;;;42.90;29.43;;;9.90;58.40;;;;;;5028144;28;20030;-85
2021/04/19 01:38:16;;;;;;;33.33;27.77;;;9.90;58.40;;;;;;5021359;28;20032;-85
2021/04/19 01:40:42;;;;;;;34.10;26.20;;;9.90;58.50;;;;;;5031439;28;20083;-85
2021/04/19 01:43:08;;;;;;;32.23;25.63;;;9.90;58.50;;;;;;5031612;28;20485;-85
2021/04/19 01:45:34;;;;;;;31.37;25.77;;;9.90;58.70;;;;;;5031113;28;20033;-85
2021/04/19 01:48:00;;;;;;;32.87;26.07;;;9.90;58.80;;;;;;5031766;28;20385;-85
2021/04/19 01:50:28;;;;;;;33.90;25.10;;;9.90;58.80;;;;;;5030503;28;20032;-85
2021/04/19 01:52:55;;;;;;;35.43;24.70;;;9.90;59.00;;;;;;5019548;28;20036;-85
2021/04/19 01:55:24;;;;;;;32.13;25.33;;;9.90;58.90;;;;;;5025378;28;20054;-85
2021/04/19 01:57:55;;;;;;;31.87;25.57;;;9.90;58.90;;;;;;5019908;28;20038;-85
2021/04/19 02:00:23;;;;;;;29.33;23.03;;;9.90;58.90;;;;;;5029388;28;20375;-85
2021/04/19 02:03:00;;;;;;;29.20;22.83;;;9.80;58.90;;;;;;5024967;28;20417;-85
2021/04/19 02:05:54;;;;;;;28.33;23.27;;;9.80;59.10;;;;;;5030851;28;20056;-85
2021/04/19 02:08:25;;;;;;;;;;;9.80;59.30;;;;;;5019348;28;20029;-85
2021/04/19 02:11:15;;;;;;;29.33;21.97;;;9.70;59.10;;;;;;5030584;28;19916;-85
2021/04/19 02:13:58;;;;;;;25.90;20.87;;;9.70;59.30;;;;;;5021916;28;20021;-85
2021/04/19 02:16:39;;;;;;;25.45;20.50;;;9.60;59.50;;;;;;5029830;28;20547;-85
2021/04/19 02:19:20;;;;;;;26.57;21.23;;;9.50;59.50;;;;;;5040700;28;20025;-85
2021/04/19 02:21:54;;;;;;;28.80;22.00;;;9.50;59.70;;;;;;5027466;28;20036;-84
2021/04/19 02:24:25;;;;;;;34.00;22.73;;;9.50;59.80;;;;;;5030812;28;20086;-85
2021/04/19 02:26:56;;;;;;;30.77;22.60;;;9.50;59.90;;;;;;5030036;28;20021;-85
2021/04/19 02:29:41;;;;;;;32.60;25.10;;;9.50;60.00;;;;;;5029765;28;20061;-85
2021/04/19 02:32:23;;;;;;;30.87;22.83;;;9.40;60.20;;;;;;5030191;28;20392;-85
2021/04/19 02:34:53;;;;;;;30.42;23.33;;;9.40;60.10;;;;;;5030944;28;20396;-84
2021/04/19 02:37:21;;;;;;;25.83;19.27;;;9.30;59.90;;;;;;5026493;28;20739;-84
2021/04/19 02:39:48;;;;;;;30.53;21.80;;;9.30;60.10;;;;;;5026757;28;20053;-85
2021/04/19 02:42:15;;;;;;;27.50;19.10;;;9.30;60.20;;;;;;5024070;28;20025;-84
2021/04/19 02:44:44;;;;;;;23.50;18.40;;;9.30;60.20;;;;;;5029689;28;20029;-83
2021/04/19 02:47:11;;;;;;;23.90;18.87;;;9.30;60.10;;;;;;5026512;28;20033;-83
2021/04/19 02:49:37;;;;;;;25.10;19.13;;;9.20;59.80;;;;;;5030765;28;20370;-83
2021/04/19 02:52:06;;;;;;;26.60;20.13;;;9.20;59.80;;;;;;5025936;28;20074;-84
2021/04/19 02:54:33;;;;;;;27.97;21.93;;;9.20;59.80;;;;;;5026311;28;20041;-84
2021/04/19 02:57:00;;;;;;;28.83;21.63;;;9.20;59.90;;;;;;5024338;28;20018;-84
2021/04/19 02:59:29;;;;;;;34.40;24.97;;;9.20;60.00;;;;;;5023046;28;20163;-84
2021/04/19 03:02:00;;;;;;;34.20;26.33;;;9.10;60.20;;;;;;5019993;28;20026;-84
2021/04/19 03:04:33;;;;;;;33.90;26.13;;;9.20;60.40;;;;;;5026501;28;20149;-85
2021/04/19 03:07:01;;;;;;;34.72;26.77;;;9.20;60.60;;;;;;5025622;28;20485;-85
2021/04/19 03:09:27;;;;;;;36.23;25.17;;;9.10;60.60;;;;;;5020016;28;20032;-84
2021/04/19 03:12:01;;;;;;;32.03;25.83;;;9.10;60.80;;;;;;5030471;28;20148;-85
2021/04/19 03:14:53;;;;;;;36.20;26.40;;;9.20;61.00;;;;;;5027892;28;20485;-84
2021/04/19 03:17:23;;;;;;;38.63;25.88;;;9.20;61.10;;;;;;5028356;28;20595;-84
2021/04/19 03:20:10;;;;;;;36.27;26.20;;;9.20;61.00;;;;;;5023386;28;20477;-84
2021/04/19 03:22:41;;;;;;;32.47;26.13;;;9.20;61.10;;;;;;5025415;28;20022;-84
2021/04/19 03:25:09;;;;;;;34.27;25.93;;;9.20;61.20;;;;;;5021665;28;20497;-84
2021/04/19 03:27:36;;;;;;;34.03;25.30;;;9.10;61.20;;;;;;5029953;28;20466;-84
2021/04/19 03:30:04;;;;;;;34.13;26.03;;;9.10;61.30;;;;;;5028022;28;20558;-84
2021/04/19 03:32:38;;;;;;;35.10;25.40;;;9.10;61.40;;;;;;5030796;28;20025;-84
2021/04/19 03:35:08;;;;;;;34.90;25.70;;;9.20;61.60;;;;;;5028024;28;20481;-84
2021/04/19 03:37:37;;;;;;;35.13;26.37;;;9.20;61.40;;;;;;5026800;28;20037;-85
2021/04/19 03:40:25;;;;;;;36.83;27.27;;;9.10;61.40;;;;;;5026403;28;20059;-85
2021/04/19 03:42:56;;;;;;;30.50;24.63;;;9.20;61.50;;;;;;5034885;28;20032;-84
2021/04/19 03:45:24;;;;;;;34.40;25.87;;;9.20;61.50;;;;;;5030601;28;20489;-84
2021/04/19 03:47:52;;;;;;;32.27;24.43;;;9.20;61.40;;;;;;5027049;28;20029;-85
2021/04/19 03:50:22;;;;;;;29.77;23.13;;;9.10;61.30;;;;;;5034117;28;20381;-84
2021/04/19 03:52:50;;;;;;;29.60;22.07;;;9.10;61.20;;;;;;5023824;28;20021;-84
2021/04/19 03:55:17;;;;;;;28.73;23.03;;;9.10;61.20;;;;;;5030081;28;20067;-85
2021/04/19 03:57:47;;;;;;;28.20;21.73;;;9.00;60.90;;;;;;5027242;28;20109;-85
2021/04/19 04:00:16;;;;;;;30.90;22.07;;;9.00;61.00;;;;;;5026897;28;20030;-84
2021/04/19 04:02:46;;;;;;;33.07;24.83;;;9.00;61.10;;;;;;5030161;28;20034;-84
2021/04/19 04:05:13;;;;;;;34.27;27.03;;;9.00;61.20;;;;;;5030306;28;20408;-84
2021/04/19 04:07:39;;;;;;;40.53;28.00;;;9.00;61.40;;;;;;5029158;28;20116;-85
2021/04/19 04:10:07;;;;;;;38.60;25.47;;;9.00;61.60;;;;;;5030910;28;20032;-84
2021/04/19 04:12:35;;;;;;;32.50;22.37;;;8.90;61.70;;;;;;5030469;28;20022;-84
2021/04/19 04:15:02;;;;;;;28.63;22.07;;;9.00;61.50;;;;;;5024999;28;20381;-84
2021/04/19 04:17:28;;;;;;;30.93;22.23;;;9.00;61.30;;;;;;5022094;28;20037;-85
2021/04/19 04:19:55;;;;;;;30.13;22.17;;;9.00;61.30;;;;;;5030285;28;20079;-84
2021/04/19 04:22:22;;;;;;;31.93;22.43;;;9.00;61.40;;;;;;5031142;28;20029;-84
2021/04/19 04:24:49;;;;;;;31.60;23.83;;;9.00;61.50;;;;;;5025378;28;20041;-84
2021/04/19 04:27:16;;;;;;;31.47;24.87;;;9.00;61.50;;;;;;5025944;28;20055;-84
2021/04/19 04:29:42;;;;;;;31.57;24.07;;;9.00;61.50;;;;;;5025828;28;20046;-84
2021/04/19 04:32:08;;;;;;;28.83;23.27;;;9.00;61.70;;;;;;5027851;28;20057;-84
2021/04/19 04:34:34;;;;;;;35.13;26.80;;;9.00;61.80;;;;;;5025115;28;20021;-84
2021/04/19 04:37:01;;;;;;;36.27;26.33;;;9.00;61.90;;;;;;5037102;28;20070;-84
2021/04/19 04:39:27;;;;;;;37.93;29.33;;;9.10;62.00;;;;;;5018479;28;20493;-85
2021/04/19 04:41:53;;;;;;;39.87;28.20;;;9.10;62.00;;;;;;5029625;28;20026;-84
2021/04/19 04:44:24;;;;;;;35.03;26.03;;;9.10;62.00;;;;;;5029980;28;20026;-84
2021/04/19 04:47:12;;;;;;;41.17;28.70;;;9.20;62.10;;;;;;5021502;28;20487;-84
2021/04/19 04:49:56;;;;;;;35.07;27.20;;;9.10;62.10;;;;;;5039130;28;20054;-84
2021/04/19 04:52:23;;;;;;;38.30;28.20;;;9.10;62.30;;;;;;5023804;28;20034;-84
2021/04/19 04:54:50;;;;;;;39.57;29.50;;;9.10;62.40;;;;;;5030802;28;20107;-84
2021/04/19 04:57:20;;;;;;;39.77;29.17;;;9.10;62.50;;;;;;5023954;28;20064;-84
2021/04/19 04:59:52;;;;;;;37.20;29.17;;;9.10;62.70;;;;;;5029999;28;20112;-84
2021/04/19 05:02:20;;;;;;;41.37;30.07;;;9.10;62.70;;;;;;5030971;28;20073;-84
2021/04/19 05:04:47;;;;;;;37.53;28.97;;;9.10;62.80;;;;;;5029421;28;20485;-83
2021/04/19 05:07:13;;;;;;;39.43;28.77;;;9.10;62.90;;;;;;5026252;28;20022;-84
2021/04/19 05:09:40;;;;;;;38.50;27.60;;;9.10;63.00;;;;;;5026452;28;20382;-84
2021/04/19 05:12:06;;;;;;;38.00;29.10;;;9.00;63.10;;;;;;5028460;28;20017;-83
2021/04/19 05:14:32;;;;;;;39.77;29.23;;;9.10;63.30;;;;;;5031320;28;20029;-84
2021/04/19 05:16:58;;;;;;;40.33;28.83;;;9.10;63.30;;;;;;5022267;28;20063;-84
2021/04/19 05:19:24;;;;;;;36.60;28.70;;;9.20;63.20;;;;;;5028014;28;20525;-84
2021/04/19 05:21:49;;;;;;;37.97;28.50;;;9.20;63.20;;;;;;5030126;28;20063;-83
2021/04/19 05:24:15;;;;;;;38.00;28.13;;;9.20;63.10;;;;;;5021756;28;20029;-84
2021/04/19 05:26:41;;;;;;;38.47;29.73;;;9.20;63.10;;;;;;5029570;28;20030;-84
2021/04/19 05:29:07;;;;;;;38.87;29.43;;;9.20;63.20;;;;;;5022636;28;20427;-84
2021/04/19 05:31:32;;;;;;;40.37;29.60;;;9.20;63.30;;;;;;5019405;28;20072;-84
2021/04/19 05:33:58;;;;;;;40.53;30.80;;;9.20;63.50;;;;;;5024382;28;20108;-84
2021/04/19 05:36:26;;;;;;;42.23;29.53;;;9.10;63.70;;;;;;5024953;28;20044;-83
2021/04/19 05:38:52;;;;;;;38.57;28.20;;;9.10;64.00;;;;;;5027208;28;20033;-84
2021/04/19 05:41:20;;;;;;;39.73;28.30;;;9.10;64.10;;;;;;5021930;28;20040;-84
2021/04/19 05:43:46;;;;;;;37.30;27.93;;;9.10;64.00;;;;;;5030714;28;20021;-84
2021/04/19 05:46:14;;;;;;;38.80;29.40;;;9.20;64.00;;;;;;5028382;28;21369;-84
2021/04/19 05:48:40;;;;;;;38.40;30.60;;;9.30;64.00;;;;;;5029477;28;20033;-84
2021/04/19 05:51:14;;;;;;;38.43;29.83;;;9.30;63.90;;;;;;5030683;28;20026;-84
2021/04/19 05:53:41;;;;;;;37.60;29.60;;;9.30;63.90;;;;;;5019359;28;20503;-84
2021/04/19 05:56:18;;;;;;;36.40;28.50;;;9.40;63.80;;;;;;5030001;28;20030;-84
2021/04/19 05:58:54;;;;;;;42.57;29.10;;;9.40;63.90;;;;;;5014181;28;20030;-84
2021/04/19 06:01:22;;;;;;;41.27;29.50;;;9.40;63.80;;;;;;5027278;28;20037;-84
2021/04/19 06:03:53;;;;;;;41.10;29.00;;;9.40;63.80;;;;;;5025279;28;20040;-84
2021/04/19 06:07:07;;;;;;;38.20;28.37;;;9.50;63.90;;;;;;5031588;28;20465;-84
2021/04/19 06:09:48;;;;;;;37.90;28.07;;;9.50;64.00;;;;;;4996496;28;20031;-84
2021/04/19 06:12:19;;;;;;;39.93;30.10;;;9.50;63.90;;;;;;5022417;28;20026;-84
2021/04/19 06:14:46;;;;;;;38.30;28.23;;;9.50;63.80;;;;;;5030148;28;20029;-84
2021/04/19 06:17:13;;;;;;;35.90;28.37;;;9.50;63.80;;;;;;5021228;28;20026;-85
2021/04/19 06:19:44;;;;;;;38.73;27.60;;;9.50;63.80;;;;;;5020638;28;20397;-84
2021/04/19 06:22:18;;;;;;;39.13;29.20;;;9.50;63.80;;;;;;5032044;28;20470;-83
2021/04/19 06:24:49;;;;;;;36.80;28.80;;;9.50;63.90;;;;;;5027686;28;20087;-84
2021/04/19 06:27:25;;;;;;;39.17;28.87;;;9.50;63.90;;;;;;5023912;28;20026;-84
2021/04/19 06:29:51;;;;;;;35.00;27.17;;;9.50;63.90;;;;;;5027193;28;20489;-84
2021/04/19 06:32:22;;;;;;;39.17;28.10;;;9.60;63.80;;;;;;5030877;28;20029;-84
2021/04/19 06:34:52;;;;;;;36.77;28.10;;;9.50;63.60;;;;;;5029806;28;20061;-84
2021/04/19 06:37:20;;;;;;;36.73;28.57;;;9.60;63.70;;;;;;5029323;28;20041;-84
2021/04/19 06:39:46;;;;;;;37.13;28.40;;;9.60;63.60;;;;;;5028782;28;20029;-85
2021/04/19 06:42:12;;;;;;;34.50;26.17;;;9.60;63.70;;;;;;5022053;28;20482;-84
2021/04/19 06:44:38;;;;;;;36.57;27.67;;;9.60;63.70;;;;;;5030422;28;20057;-84
2021/04/19 06:47:05;;;;;;;36.87;26.13;;;9.60;63.60;;;;;;5026746;28;20025;-84
2021/04/19 06:49:30;;;;;;;40.77;28.03;;;9.60;63.60;;;;;;5023387;28;20153;-84
2021/04/19 06:51:57;;;;;;;45.00;29.80;;;9.60;63.60;;;;;;5018380;28;20104;-84
2021/04/19 06:54:26;;;;;;;38.97;29.43;;;9.60;63.70;;;;;;5019723;28;20045;-84
2021/04/19 06:56:54;;;;;;;41.00;31.10;;;9.60;63.90;;;;;;5029152;28;20029;-84
2021/04/19 06:59:23;;;;;;;43.17;31.67;;;9.60;64.00;;;;;;5039479;28;20022;-84
2021/04/19 07:01:51;;;;;;;42.40;30.87;;;9.60;64.20;;;;;;5028240;28;20021;-84
2021/04/19 07:04:22;;;;;;;42.17;30.03;;;9.60;64.40;;;;;;5031338;28;20696;-85
2021/04/19 07:06:49;;;;;;;35.40;27.33;;;9.70;64.60;;;;;;5033734;28;20029;-84
2021/04/19 07:09:18;;;;;;;40.23;30.80;;;9.70;64.40;;;;;;5029172;28;20025;-84
2021/04/19 07:11:44;;;;;;;37.57;28.73;;;9.70;64.60;;;;;;5041294;28;20025;-84
2021/04/19 07:14:13;;;;;;;39.33;28.93;;;9.70;64.50;;;;;;5033463;28;20022;-84
2021/04/19 07:16:38;;;;;;;41.80;29.20;;;9.80;64.50;;;;;;5029620;28;20571;-84
2021/04/19 07:19:05;;;;;;;36.63;29.43;;;9.80;64.50;;;;;;5032642;28;20026;-84
2021/04/19 07:21:33;;;;;;;40.60;29.67;;;9.70;64.60;;;;;;5032561;28;20393;-84
2021/04/19 07:24:02;;;;;;;40.40;29.60;;;9.80;64.70;;;;;;5027464;28;20033;-84
2021/04/19 07:26:29;;;;;;;41.30;30.10;;;9.80;64.80;;;;;;5030723;28;20025;-84
2021/04/19 07:28:55;;;;;;;41.87;29.83;;;9.80;64.80;;;;;;5033694;28;20481;-84
2021/04/19 07:31:21;;;;;;;43.60;32.27;;;9.70;64.90;;;;;;5033483;28;20104;-84
2021/04/19 07:33:47;;;;;;;48.17;32.07;;;9.70;65.10;;;;;;5030517;28;20033;-84
2021/04/19 07:36:32;;;;;;;43.87;32.87;;;9.70;65.20;;;;;;5028790;28;20090;-84
2021/04/19 07:39:14;;;;;;;45.83;31.57;;;9.80;65.50;;;;;;5032969;28;20068;-84
2021/04/19 07:41:47;;;;;;;47.28;33.20;;;9.80;65.40;;;;;;5026503;28;21119;-85
2021/04/19 07:44:35;;;;;;;46.20;33.27;;;9.80;65.20;;;;;;5024826;28;20127;-84
2021/04/19 07:47:31;;;;;;;46.50;34.17;;;9.70;65.30;;;;;;5019940;28;20025;-84
2021/04/19 07:50:02;;;;;;;46.60;34.07;;;9.70;65.50;;;;;;5039360;28;20501;-84
2021/04/19 07:52:30;;;;;;;42.83;32.13;;;9.70;65.40;;;;;;5020363;28;20397;-84
2021/04/19 07:55:03;;;;;;;47.47;34.03;;;9.80;65.30;;;;;;5020920;28;20493;-84
2021/04/19 07:57:29;;;;;;;45.00;32.50;;;9.80;65.80;;;;;;5023267;28;20469;-84
2021/04/19 07:59:55;;;;;;;44.87;33.80;;;9.80;65.20;;;;;;5033900;28;20087;-84
2021/04/19 08:02:21;;;;;;;45.80;33.03;;;9.80;65.30;;;;;;5033304;28;20083;-84
2021/04/19 08:04:49;;;;;;;44.10;32.97;;;9.80;65.50;;;;;;5033602;28;20026;-84
2021/04/19 08:07:29;;;;;;;45.20;33.17;;;9.80;65.60;;;;;;5033595;28;20083;-84
2021/04/19 08:10:03;;;;;;;44.70;32.20;;;9.80;65.70;;;;;;5031260;28;20029;-84
2021/04/19 08:12:38;;;;;;;45.80;32.07;;;9.90;65.60;;;;;;5031410;28;20057;-84
2021/04/19 08:15:10;;;;;;;46.10;32.33;;;9.90;65.40;;;;;;5015804;28;20112;-84
2021/04/19 08:17:36;;;;;;;45.53;33.03;;;9.90;65.20;;;;;;5033955;28;20088;-78
2021/04/19 08:20:11;;;;;;;43.40;33.10;;;10.00;65.10;;;;;;5023736;28;20041;-78
2021/04/19 08:22:38;;;;;;;41.37;30.73;;;10.00;65.10;;;;;;5025701;28;20030;-79
2021/04/19 08:25:10;;;;;;;43.17;32.43;;;10.00;65.00;;;;;;5032399;28;20405;-78
2021/04/19 08:27:36;;;;;;;45.55;31.52;;;10.00;64.90;;;;;;5032757;28;20426;-78
2021/04/19 08:30:04;;;;;;;41.80;30.33;;;10.00;64.80;;;;;;5026821;28;20040;-78
2021/04/19 08:32:31;;;;;;;42.97;32.70;;;10.10;64.70;;;;;;5032343;28;20499;-81
2021/04/19 08:34:57;;;;;;;44.97;34.03;;;10.00;64.70;;;;;;5031102;28;20152;-81
2021/04/19 08:37:27;;;;;;;45.23;32.47;;;10.00;64.80;;;;;;5023402;28;20057;-81
2021/04/19 08:39:54;;;;;;;40.07;31.00;;;10.10;65.30;;;;;;5025998;28;20026;-81
2021/04/19 08:42:21;;;;;;;43.03;30.03;;;10.10;64.80;;;;;;5031945;28;20025;-81
2021/04/19 08:44:49;;;;;;;42.90;32.00;;;10.20;64.90;;;;;;5031454;28;20053;-81
2021/04/19 08:47:19;;;;;;;42.83;31.37;;;10.20;64.80;;;;;;5018579;28;20037;-81
2021/04/19 08:49:46;;;;;;;38.07;30.00;;;10.30;64.60;;;;;;5022503;28;20018;-81
2021/04/19 08:52:13;;;;;;;40.00;30.70;;;10.40;64.30;;;;;;5027883;28;20021;-81
2021/04/19 08:54:39;;;;;;;38.43;29.50;;;10.40;64.30;;;;;;5032532;28;20485;-81
2021/04/19 08:57:05;;;;;;;40.93;30.50;;;10.50;64.10;;;;;;5033600;28;20029;-81
2021/04/19 08:59:31;;;;;;;39.37;30.83;;;10.50;64.50;;;;;;5021240;28;20470;-82
2021/04/19 09:01:58;;;;;;;36.27;29.17;;;10.60;64.00;;;;;;5023859;28;20067;-81
2021/04/19 09:04:24;;;;;;;35.43;27.33;;;10.70;63.60;;;;;;5032636;28;20033;-82
2021/04/19 09:06:52;;;;;;;34.87;27.47;;;10.80;63.40;;;;;;5026192;28;20095;-81
2021/04/19 09:09:33;;;;;;;34.27;26.97;;;10.80;63.20;;;;;;5016051;28;20432;-81
2021/04/19 09:12:11;;;;;;;33.53;26.23;;;11.00;62.90;;;;;;5031754;28;20100;-81
2021/04/19 09:14:39;;;;;;;32.60;25.80;;;11.00;62.30;;;;;;5031682;28;20037;-82
2021/04/19 09:17:05;;;;;;;34.13;27.43;;;11.10;62.10;;;;;;5020599;28;20034;-81
2021/04/19 09:19:37;;;;;;;34.73;26.87;;;11.30;62.10;;;;;;5025261;28;20491;-81
2021/04/19 09:22:10;;;;;;;34.42;27.33;;;11.40;61.80;;;;;;5020231;28;20026;-81
2021/04/19 09:25:02;;;;;;;37.57;28.17;;;11.50;61.70;;;;;;5029545;28;20029;-81
2021/04/19 09:27:53;;;;;;;30.97;24.73;;;11.50;61.60;;;;;;5016336;28;20075;-81
2021/04/19 09:30:25;;;;;;;31.60;25.90;;;11.60;61.30;;;;;;5019884;28;20029;-81
2021/04/19 09:33:06;;;;;;;31.83;25.90;;;11.60;61.20;;;;;;5023566;28;20644;-81
2021/04/19 09:35:46;;;;;;;32.23;25.27;;;11.60;61.20;;;;;;5014259;28;20555;-82
2021/04/19 09:38:14;;;;;;;36.97;26.43;;;11.60;61.00;;;;;;5017330;28;20048;-82
2021/04/19 09:40:47;;;;;;;31.77;24.60;;;11.70;61.20;;;;;;5021381;28;20473;-81
2021/04/19 09:43:41;;;;;;;30.63;22.73;;;11.70;61.00;;;;;;5030163;28;20488;-81
2021/04/19 09:46:09;;;;;;;29.10;22.30;;;11.80;60.60;;;;;;5030390;28;20030;-82
2021/04/19 09:48:40;;;;;;;31.27;24.00;;;11.80;60.30;;;;;;5031037;28;20052;-81
2021/04/19 09:51:19;;;;;;;28.30;22.97;;;11.90;60.10;;;;;;5031398;28;20385;-82
2021/04/19 09:53:45;;;;;;;28.97;21.90;;;11.90;59.70;;;;;;5029467;28;20067;-81
2021/04/19 09:56:12;;;;;;;29.10;22.97;;;12.00;59.70;;;;;;5028108;28;20032;-82
2021/04/19 09:58:39;;;;;;;28.40;23.43;;;12.10;59.40;;;;;;5023814;28;20092;-81
2021/04/19 10:01:06;;;;;;;29.33;23.80;;;12.20;59.10;;;;;;5023389;28;20105;-81
2021/04/19 10:03:33;;;;;;;27.83;21.93;;;12.30;59.10;;;;;;5028602;28;20067;-82
2021/04/19 10:06:02;;;;;;;29.73;23.57;;;12.50;58.90;;;;;;5029296;28;20410;-82
2021/04/19 10:08:30;;;;;;;27.37;22.27;;;12.60;58.50;;;;;;5029660;28;20480;-82
2021/04/19 10:10:58;;;;;;;29.00;22.67;;;12.70;58.40;;;;;;5022543;28;20029;-82
2021/04/19 10:13:32;;;;;;;28.17;21.90;;;12.70;58.30;;;;;;5022453;28;20033;-82
2021/04/19 10:16:24;;;;;;;25.63;20.70;;;12.70;58.30;;;;;;5031232;28;20385;-81
2021/04/19 10:18:52;;;;;;;24.07;20.07;;;12.80;58.00;;;;;;5036487;28;20113;-82
2021/04/19 10:21:44;;;;;;;27.40;20.67;;;12.90;58.00;;;;;;5022867;28;20036;-82
2021/04/19 10:24:16;;;;;;;27.50;22.60;;;13.10;57.70;;;;;;5024810;28;20044;-82
2021/04/19 10:26:42;;;;;;;24.30;20.07;;;13.30;57.20;;;;;;5027346;28;20064;-82
2021/04/19 10:29:09;;;;;;;24.07;20.47;;;13.30;57.00;;;;;;5029650;28;20276;-82
2021/04/19 10:31:35;;;;;;;26.53;20.87;;;13.30;56.90;;;;;;5026301;28;20032;-82
2021/04/19 10:34:10;;;;;;;25.47;22.17;;;13.30;56.70;;;;;;5018069;28;20363;-82
2021/04/19 10:36:45;;;;;;;28.17;22.37;;;13.30;56.60;;;;;;5024677;28;20554;-81
2021/04/19 10:39:14;;;;;;;25.70;21.20;;;13.30;56.80;;;;;;5029238;28;20029;-82
2021/04/19 10:41:40;;;;;;;27.43;21.77;;;13.30;56.50;;;;;;5045526;28;20120;-81
2021/04/19 10:44:08;;;;;;;28.00;21.67;;;13.20;56.40;;;;;;5024478;28;20029;-82
2021/04/19 10:46:37;;;;;;;24.07;19.37;;;13.20;56.40;;;;;;5027736;28;20033;-82
2021/04/19 10:49:05;;;;;;;28.17;20.73;;;13.20;56.40;;;;;;5031239;28;20060;-82
2021/04/19 10:51:32;;;;;;;23.53;20.17;;;13.20;56.20;;;;;;5027576;28;20084;-81
2021/04/19 10:54:02;;;;;;;25.27;19.80;;;13.30;56.10;;;;;;5032885;28;20493;-81
2021/04/19 10:56:29;;;;;;;26.90;17.60;;;13.40;55.70;;;;;;5030511;28;20489;-81
2021/04/19 10:59:16;;;;;;;23.03;16.80;;;13.50;55.50;;;;;;5031805;28;20389;-81
2021/04/19 11:01:44;;;;;;;23.10;17.63;;;13.60;55.10;;;;;;5027623;28;20034;-81
2021/04/19 11:04:14;;;;;;;21.97;17.43;;;13.60;54.80;;;;;;5029668;28;20543;-81
2021/04/19 11:06:40;;;;;;;19.40;17.03;;;13.50;54.70;;;;;;5025710;28;20033;-81
2021/04/19 11:09:16;;;;;;;20.70;16.40;;;13.50;54.70;;;;;;5028806;28;20029;-81
2021/04/19 11:11:43;;;;;;;20.83;17.73;;;13.50;54.20;;;;;;5030161;28;20045;-81
2021/04/19 11:14:18;;;;;;;23.53;17.53;;;13.50;54.10;;;;;;5034877;28;20028;-81
2021/04/19 11:17:02;;;;;;;20.83;15.20;;;13.60;54.00;;;;;;5033248;28;20041;-81
2021/04/19 11:19:36;;;;;;;18.40;14.63;;;13.60;53.80;;;;;;5043142;28;20508;-81
2021/04/19 11:22:19;;;;;;;18.43;15.53;;;13.60;53.40;;;;;;5033199;28;20581;-81
2021/04/19 11:24:45;;;;;;;21.03;15.47;;;13.60;53.40;;;;;;5026134;28;20380;-81
2021/04/19 11:27:11;;;;;;;15.40;13.23;;;13.60;53.30;;;;;;5033011;28;20052;-81
2021/04/19 11:29:42;;;;;;;18.17;14.17;;;13.70;52.80;;;;;;5031660;28;20060;-81
2021/04/19 11:32:25;;;;;;;18.37;14.27;;;13.70;52.60;;;;;;5031505;28;20538;-81
2021/04/19 11:34:51;;;;;;;16.45;12.65;;;13.80;52.50;;;;;;5030966;28;20036;-81
2021/04/19 11:37:31;;;;;;;15.33;12.47;;;14.00;52.10;;;;;;5033073;28;20381;-81
2021/04/19 11:39:57;;;;;;;13.60;11.40;;;14.20;51.70;;;;;;5018768;28;20061;-81
2021/04/19 11:42:34;;;;;;;14.53;11.50;;;14.30;51.50;;;;;;5031032;28;20017;-81
2021/04/19 11:45:02;;;;;;;18.73;12.40;;;14.30;50.90;;;;;;5031253;28;20041;-81
2021/04/19 11:47:28;;;;;;;14.30;11.90;;;14.30;50.70;;;;;;5032510;28;20029;-81
2021/04/19 11:49:56;;;;;;;16.27;12.67;;;14.10;50.60;;;;;;5019499;28;20052;-81
2021/04/19 11:52:23;;;;;;;14.03;10.73;;;14.20;50.60;;;;;;5031706;28;20057;-81
2021/04/19 11:54:49;;;;;;;16.43;11.67;;;14.30;50.60;;;;;;5026397;28;20048;-81
2021/04/19 11:57:14;;;;;;;18.10;11.17;;;14.40;50.30;;;;;;5026519;28;20022;-82
2021/04/19 11:59:40;;;;;;;13.23;10.63;;;14.60;50.00;;;;;;5030838;28;20029;-82
2021/04/19 12:02:07;;;;;;;13.30;11.70;;;14.70;49.70;;;;;;5026958;28;20060;-82
2021/04/19 12:04:34;;;;;;;13.47;11.07;;;14.70;49.30;;;;;;5024141;28;20068;-81
2021/04/19 12:07:00;;;;;;;14.53;10.77;;;14.80;49.40;;;;;;5032387;28;20025;-82
2021/04/19 12:09:26;;;;;;;15.20;12.00;;;14.80;49.40;;;;;;5031457;28;20385;-82
2021/04/19 12:11:55;;;;;;;12.33;10.40;;;14.80;49.40;;;;;;5026209;28;20022;-82
2021/04/19 12:14:21;;;;;;;12.70;10.97;;;14.90;49.50;;;;;;5024640;28;20026;-82
2021/04/19 12:16:47;;;;;;;15.33;11.13;;;15.00;49.40;;;;;;5030369;28;20481;-81
2021/04/19 12:19:13;;;;;;;12.40;10.83;;;15.00;49.10;;;;;;5027816;28;20025;-82
2021/04/19 12:21:40;;;;;;;14.20;10.03;;;15.10;48.50;;;;;;5027536;28;20021;-82
2021/04/19 12:24:06;;;;;;;12.60;10.30;;;15.20;48.10;;;;;;5029040;28;20033;-81
2021/04/19 12:26:32;;;;;;;13.17;10.77;;;15.20;47.60;;;;;;5030139;28;20482;-81
2021/04/19 12:28:58;;;;;;;11.93;10.10;;;15.30;46.90;;;;;;5030895;28;20048;-81
2021/04/19 12:31:24;;;;;;;14.10;9.23;;;15.20;46.20;;;;;;5026157;28;20026;-82
2021/04/19 12:33:50;;;;;;;12.23;9.97;;;15.00;45.90;;;;;;5023342;28;20030;-81
2021/04/19 12:36:17;;;;;;;14.30;10.23;;;15.10;46.50;;;;;;5027233;28;20026;-81
2021/04/19 12:38:43;;;;;;;11.70;10.13;;;15.20;46.40;;;;;;5026395;28;20029;-82
2021/04/19 12:41:09;;;;;;;10.43;8.63;;;15.20;46.10;;;;;;5024076;28;20021;-82
2021/04/19 12:43:35;;;;;;;10.80;8.70;;;15.40;46.20;;;;;;5027914;28;20036;-82
2021/04/19 12:46:01;;;;;;;13.67;9.57;;;15.40;46.00;;;;;;5023898;28;20088;-82